sensor_id;sensor_type;location;lat;lon;timestamp;temperature;humidity
10986;DHT22;5546;48.714;8.738;2022-11-20T00:00:55;8.40;96.70
10986;DHT22;5546;48.714;8.738;2022-11-20T00:03:21;8.20;96.80
10986;DHT22;5546;48.714;8.738;2022-11-20T00:05:47;8.20;97.10
10986;DHT22;5546;48.714;8.738;2022-11-20T00:08:12;8.20;97.30
10986;DHT22;5546;48.714;8.738;2022-11-20T00:10:39;8.10;97.30
10986;DHT22;5546;48.714;8.738;2022-11-20T00:13:05;8.00;97.80
10986;DHT22;5546;48.714;8.738;2022-11-20T00:17:57;7.70;98.50
10986;DHT22;5546;48.714;8.738;2022-11-20T00:20:23;7.70;97.90
10986;DHT22;5546;48.714;8.738;2022-11-20T00:22:49;7.80;98.20
10986;DHT22;5546;48.714;8.738;2022-11-20T00:25:15;7.80;98.00
10986;DHT22;5546;48.714;8.738;2022-11-20T00:27:40;7.70;98.10
10986;DHT22;5546;48.714;8.738;2022-11-20T00:30:06;7.60;98.10
10986;DHT22;5546;48.714;8.738;2022-11-20T00:32:32;7.50;98.30
10986;DHT22;5546;48.714;8.738;2022-11-20T00:34:58;7.40;98.40
10986;DHT22;5546;48.714;8.738;2022-11-20T00:37:23;7.30;98.70
10986;DHT22;5546;48.714;8.738;2022-11-20T00:39:49;7.30;98.70
10986;DHT22;5546;48.714;8.738;2022-11-20T00:42:14;7.00;98.70
10986;DHT22;5546;48.714;8.738;2022-11-20T00:44:40;7.00;99.00
10986;DHT22;5546;48.714;8.738;2022-11-20T00:47:05;7.00;98.80
10986;DHT22;5546;48.714;8.738;2022-11-20T00:49:31;7.00;99.10
10986;DHT22;5546;48.714;8.738;2022-11-20T00:51:56;7.20;98.90
10986;DHT22;5546;48.714;8.738;2022-11-20T00:54:22;7.10;98.50
10986;DHT22;5546;48.714;8.738;2022-11-20T00:56:47;7.10;98.40
10986;DHT22;5546;48.714;8.738;2022-11-20T00:59:13;7.10;98.50
10986;DHT22;5546;48.714;8.738;2022-11-20T01:01:38;7.10;98.80
10986;DHT22;5546;48.714;8.738;2022-11-20T01:04:04;7.10;98.70
10986;DHT22;5546;48.714;8.738;2022-11-20T01:06:32;7.20;98.30
10986;DHT22;5546;48.714;8.738;2022-11-20T01:09:00;7.40;97.70
10986;DHT22;5546;48.714;8.738;2022-11-20T01:11:31;7.40;97.50
10986;DHT22;5546;48.714;8.738;2022-11-20T01:13:58;7.40;97.80
10986;DHT22;5546;48.714;8.738;2022-11-20T01:16:26;7.50;97.40
10986;DHT22;5546;48.714;8.738;2022-11-20T01:18:54;7.40;97.90
10986;DHT22;5546;48.714;8.738;2022-11-20T01:23:49;6.60;99.40
10986;DHT22;5546;48.714;8.738;2022-11-20T01:26:20;6.50;99.40
10986;DHT22;5546;48.714;8.738;2022-11-20T01:28:46;6.80;98.80
10986;DHT22;5546;48.714;8.738;2022-11-20T01:31:14;6.80;99.10
10986;DHT22;5546;48.714;8.738;2022-11-20T01:33:41;6.90;98.60
10986;DHT22;5546;48.714;8.738;2022-11-20T01:36:08;7.10;98.40
10986;DHT22;5546;48.714;8.738;2022-11-20T01:38:34;6.80;98.50
10986;DHT22;5546;48.714;8.738;2022-11-20T01:41:00;6.40;98.90
10986;DHT22;5546;48.714;8.738;2022-11-20T01:43:26;6.20;99.70
10986;DHT22;5546;48.714;8.738;2022-11-20T01:46:15;6.20;99.90
10986;DHT22;5546;48.714;8.738;2022-11-20T01:49:08;6.50;99.60
10986;DHT22;5546;48.714;8.738;2022-11-20T01:54:13;6.80;98.30
10986;DHT22;5546;48.714;8.738;2022-11-20T01:56:43;6.80;98.60
10986;DHT22;5546;48.714;8.738;2022-11-20T01:59:11;6.60;99.10
10986;DHT22;5546;48.714;8.738;2022-11-20T02:01:38;6.50;99.20
10986;DHT22;5546;48.714;8.738;2022-11-20T02:04:05;6.70;98.80
10986;DHT22;5546;48.714;8.738;2022-11-20T02:06:36;6.50;99.20
10986;DHT22;5546;48.714;8.738;2022-11-20T02:09:02;6.60;98.60
10986;DHT22;5546;48.714;8.738;2022-11-20T02:11:29;6.60;98.80
10986;DHT22;5546;48.714;8.738;2022-11-20T02:13:54;6.50;99.30
10986;DHT22;5546;48.714;8.738;2022-11-20T02:16:33;6.70;99.10
10986;DHT22;5546;48.714;8.738;2022-11-20T02:19:02;6.90;98.60
10986;DHT22;5546;48.714;8.738;2022-11-20T02:24:19;6.30;99.50
10986;DHT22;5546;48.714;8.738;2022-11-20T02:27:09;6.20;99.20
10986;DHT22;5546;48.714;8.738;2022-11-20T02:29:52;6.40;99.50
10986;DHT22;5546;48.714;8.738;2022-11-20T02:32:30;6.50;99.30
10986;DHT22;5546;48.714;8.738;2022-11-20T02:34:56;6.70;99.00
10986;DHT22;5546;48.714;8.738;2022-11-20T02:37:23;6.80;98.60
10986;DHT22;5546;48.714;8.738;2022-11-20T02:39:51;6.70;98.80
10986;DHT22;5546;48.714;8.738;2022-11-20T02:42:18;7.00;98.30
10986;DHT22;5546;48.714;8.738;2022-11-20T02:44:43;7.00;98.20
10986;DHT22;5546;48.714;8.738;2022-11-20T02:47:09;7.10;97.90
10986;DHT22;5546;48.714;8.738;2022-11-20T02:49:34;7.10;98.00
10986;DHT22;5546;48.714;8.738;2022-11-20T02:52:00;7.30;97.80
10986;DHT22;5546;48.714;8.738;2022-11-20T02:54:26;7.00;97.40
10986;DHT22;5546;48.714;8.738;2022-11-20T02:56:52;6.90;97.90
10986;DHT22;5546;48.714;8.738;2022-11-20T02:59:17;7.10;98.20
10986;DHT22;5546;48.714;8.738;2022-11-20T03:01:43;7.20;97.60
10986;DHT22;5546;48.714;8.738;2022-11-20T03:04:08;7.20;97.90
10986;DHT22;5546;48.714;8.738;2022-11-20T03:06:34;7.20;97.80
10986;DHT22;5546;48.714;8.738;2022-11-20T03:09:00;7.40;97.60
10986;DHT22;5546;48.714;8.738;2022-11-20T03:11:25;7.40;97.40
10986;DHT22;5546;48.714;8.738;2022-11-20T03:13:51;7.40;97.60
10986;DHT22;5546;48.714;8.738;2022-11-20T03:16:19;7.20;97.60
10986;DHT22;5546;48.714;8.738;2022-11-20T03:18:46;6.90;97.80
10986;DHT22;5546;48.714;8.738;2022-11-20T03:21:12;6.60;98.40
10986;DHT22;5546;48.714;8.738;2022-11-20T03:23:38;6.30;98.90
10986;DHT22;5546;48.714;8.738;2022-11-20T03:26:16;6.70;98.00
10986;DHT22;5546;48.714;8.738;2022-11-20T03:28:45;6.70;98.50
10986;DHT22;5546;48.714;8.738;2022-11-20T03:31:13;6.80;98.50
10986;DHT22;5546;48.714;8.738;2022-11-20T03:33:40;6.90;98.00
10986;DHT22;5546;48.714;8.738;2022-11-20T03:36:10;6.90;98.30
10986;DHT22;5546;48.714;8.738;2022-11-20T03:38:37;7.00;98.10
10986;DHT22;5546;48.714;8.738;2022-11-20T03:41:05;6.90;98.40
10986;DHT22;5546;48.714;8.738;2022-11-20T03:43:31;6.80;98.50
10986;DHT22;5546;48.714;8.738;2022-11-20T03:45:57;6.90;98.60
10986;DHT22;5546;48.714;8.738;2022-11-20T03:48:23;6.80;98.50
10986;DHT22;5546;48.714;8.738;2022-11-20T03:50:49;6.70;98.70
10986;DHT22;5546;48.714;8.738;2022-11-20T03:53:15;6.70;99.30
10986;DHT22;5546;48.714;8.738;2022-11-20T03:55:41;7.10;98.40
10986;DHT22;5546;48.714;8.738;2022-11-20T03:58:07;7.20;98.10
10986;DHT22;5546;48.714;8.738;2022-11-20T04:00:33;7.30;98.20
10986;DHT22;5546;48.714;8.738;2022-11-20T04:02:59;6.90;97.80
10986;DHT22;5546;48.714;8.738;2022-11-20T04:05:25;6.90;98.10
10986;DHT22;5546;48.714;8.738;2022-11-20T04:07:50;6.40;98.70
10986;DHT22;5546;48.714;8.738;2022-11-20T04:10:16;6.40;99.00
10986;DHT22;5546;48.714;8.738;2022-11-20T04:12:42;6.70;99.00
10986;DHT22;5546;48.714;8.738;2022-11-20T04:15:08;7.00;98.00
10986;DHT22;5546;48.714;8.738;2022-11-20T04:17:33;6.80;98.40
10986;DHT22;5546;48.714;8.738;2022-11-20T04:19:59;6.90;98.40
10986;DHT22;5546;48.714;8.738;2022-11-20T04:22:24;7.10;98.10
10986;DHT22;5546;48.714;8.738;2022-11-20T04:24:50;6.80;98.20
10986;DHT22;5546;48.714;8.738;2022-11-20T04:27:15;6.90;98.30
10986;DHT22;5546;48.714;8.738;2022-11-20T04:29:41;7.20;98.20
10986;DHT22;5546;48.714;8.738;2022-11-20T04:32:07;7.30;97.70
10986;DHT22;5546;48.714;8.738;2022-11-20T04:34:32;7.40;97.40
10986;DHT22;5546;48.714;8.738;2022-11-20T04:36:58;7.40;97.40
10986;DHT22;5546;48.714;8.738;2022-11-20T04:39:23;7.70;97.20
10986;DHT22;5546;48.714;8.738;2022-11-20T04:41:49;7.70;97.40
10986;DHT22;5546;48.714;8.738;2022-11-20T04:44:34;7.70;97.00
10986;DHT22;5546;48.714;8.738;2022-11-20T04:47:00;7.70;97.30
10986;DHT22;5546;48.714;8.738;2022-11-20T04:49:25;7.60;97.50
10986;DHT22;5546;48.714;8.738;2022-11-20T04:51:53;7.40;97.70
10986;DHT22;5546;48.714;8.738;2022-11-20T04:54:19;7.30;98.30
10986;DHT22;5546;48.714;8.738;2022-11-20T04:56:47;7.40;97.80
10986;DHT22;5546;48.714;8.738;2022-11-20T04:59:13;7.00;98.40
10986;DHT22;5546;48.714;8.738;2022-11-20T05:01:39;6.80;98.60
10986;DHT22;5546;48.714;8.738;2022-11-20T05:04:04;6.90;98.90
10986;DHT22;5546;48.714;8.738;2022-11-20T05:06:31;7.20;98.40
10986;DHT22;5546;48.714;8.738;2022-11-20T05:08:57;7.10;98.50
10986;DHT22;5546;48.714;8.738;2022-11-20T05:11:23;7.30;98.00
10986;DHT22;5546;48.714;8.738;2022-11-20T05:13:50;7.70;97.70
10986;DHT22;5546;48.714;8.738;2022-11-20T05:16:23;7.70;97.90
10986;DHT22;5546;48.714;8.738;2022-11-20T05:18:50;7.90;97.50
10986;DHT22;5546;48.714;8.738;2022-11-20T05:21:16;7.90;97.80
10986;DHT22;5546;48.714;8.738;2022-11-20T05:23:42;8.10;97.20
10986;DHT22;5546;48.714;8.738;2022-11-20T05:26:13;8.10;97.40
10986;DHT22;5546;48.714;8.738;2022-11-20T05:28:39;8.00;97.40
10986;DHT22;5546;48.714;8.738;2022-11-20T05:31:13;8.10;97.90
10986;DHT22;5546;48.714;8.738;2022-11-20T05:33:43;8.40;97.40
10986;DHT22;5546;48.714;8.738;2022-11-20T05:36:10;8.40;96.90
10986;DHT22;5546;48.714;8.738;2022-11-20T05:38:36;8.40;97.30
10986;DHT22;5546;48.714;8.738;2022-11-20T05:41:04;8.40;97.20
10986;DHT22;5546;48.714;8.738;2022-11-20T05:43:32;8.00;97.80
10986;DHT22;5546;48.714;8.738;2022-11-20T05:45:58;8.20;97.40
10986;DHT22;5546;48.714;8.738;2022-11-20T05:48:23;8.30;97.10
10986;DHT22;5546;48.714;8.738;2022-11-20T05:50:50;8.50;97.30
10986;DHT22;5546;48.714;8.738;2022-11-20T05:53:15;8.50;96.80
10986;DHT22;5546;48.714;8.738;2022-11-20T05:55:41;8.50;97.00
10986;DHT22;5546;48.714;8.738;2022-11-20T05:58:06;8.50;97.10
10986;DHT22;5546;48.714;8.738;2022-11-20T06:00:32;8.30;97.30
10986;DHT22;5546;48.714;8.738;2022-11-20T06:02:57;8.30;97.00
10986;DHT22;5546;48.714;8.738;2022-11-20T06:05:23;8.30;97.30
10986;DHT22;5546;48.714;8.738;2022-11-20T06:07:48;8.00;97.30
10986;DHT22;5546;48.714;8.738;2022-11-20T06:10:14;8.00;97.60
10986;DHT22;5546;48.714;8.738;2022-11-20T06:12:39;7.50;98.30
10986;DHT22;5546;48.714;8.738;2022-11-20T06:15:05;7.70;98.60
10986;DHT22;5546;48.714;8.738;2022-11-20T06:17:31;8.00;98.20
10986;DHT22;5546;48.714;8.738;2022-11-20T06:19:56;8.00;97.70
10986;DHT22;5546;48.714;8.738;2022-11-20T06:22:22;7.50;98.40
10986;DHT22;5546;48.714;8.738;2022-11-20T06:24:48;6.90;99.40
10986;DHT22;5546;48.714;8.738;2022-11-20T06:27:13;6.50;99.90
10986;DHT22;5546;48.714;8.738;2022-11-20T06:29:39;6.10;99.90
10986;DHT22;5546;48.714;8.738;2022-11-20T06:32:04;6.40;99.90
10986;DHT22;5546;48.714;8.738;2022-11-20T06:34:30;6.60;99.90
10986;DHT22;5546;48.714;8.738;2022-11-20T06:36:55;6.90;99.90
10986;DHT22;5546;48.714;8.738;2022-11-20T06:39:21;6.90;99.90
10986;DHT22;5546;48.714;8.738;2022-11-20T06:41:46;6.80;99.90
10986;DHT22;5546;48.714;8.738;2022-11-20T06:44:12;7.00;99.90
10986;DHT22;5546;48.714;8.738;2022-11-20T06:46:38;7.10;99.90
10986;DHT22;5546;48.714;8.738;2022-11-20T06:49:03;7.40;99.80
10986;DHT22;5546;48.714;8.738;2022-11-20T06:51:29;7.40;99.90
10986;DHT22;5546;48.714;8.738;2022-11-20T06:53:54;7.70;99.90
10986;DHT22;5546;48.714;8.738;2022-11-20T06:56:20;8.00;99.10
10986;DHT22;5546;48.714;8.738;2022-11-20T06:58:46;7.70;99.70
10986;DHT22;5546;48.714;8.738;2022-11-20T07:01:13;7.20;99.90
10986;DHT22;5546;48.714;8.738;2022-11-20T07:03:39;7.40;99.90
10986;DHT22;5546;48.714;8.738;2022-11-20T07:06:05;7.50;99.70
10986;DHT22;5546;48.714;8.738;2022-11-20T07:08:32;7.20;99.90
10986;DHT22;5546;48.714;8.738;2022-11-20T07:11:03;6.80;99.90
10986;DHT22;5546;48.714;8.738;2022-11-20T07:13:29;7.30;99.90
10986;DHT22;5546;48.714;8.738;2022-11-20T07:15:58;8.10;99.90
10986;DHT22;5546;48.714;8.738;2022-11-20T07:18:24;8.50;99.30
10986;DHT22;5546;48.714;8.738;2022-11-20T07:20:50;8.60;99.50
10986;DHT22;5546;48.714;8.738;2022-11-20T07:23:15;8.70;99.30
10986;DHT22;5546;48.714;8.738;2022-11-20T07:25:41;8.90;99.10
10986;DHT22;5546;48.714;8.738;2022-11-20T07:30:32;9.10;98.20
10986;DHT22;5546;48.714;8.738;2022-11-20T07:32:58;9.10;98.50
10986;DHT22;5546;48.714;8.738;2022-11-20T07:35:24;9.20;97.70
10986;DHT22;5546;48.714;8.738;2022-11-20T07:37:50;9.20;98.20
10986;DHT22;5546;48.714;8.738;2022-11-20T07:40:16;9.10;98.40
10986;DHT22;5546;48.714;8.738;2022-11-20T07:42:53;9.10;98.70
10986;DHT22;5546;48.714;8.738;2022-11-20T07:45:20;9.30;98.50
10986;DHT22;5546;48.714;8.738;2022-11-20T07:47:46;9.50;98.20
10986;DHT22;5546;48.714;8.738;2022-11-20T07:50:12;9.70;97.80
10986;DHT22;5546;48.714;8.738;2022-11-20T07:52:38;9.70;98.10
10986;DHT22;5546;48.714;8.738;2022-11-20T07:55:03;9.90;98.00
10986;DHT22;5546;48.714;8.738;2022-11-20T07:57:30;9.60;97.70
10986;DHT22;5546;48.714;8.738;2022-11-20T07:59:55;9.70;98.10
10986;DHT22;5546;48.714;8.738;2022-11-20T08:02:21;9.80;98.20
10986;DHT22;5546;48.714;8.738;2022-11-20T08:04:46;9.90;98.10
10986;DHT22;5546;48.714;8.738;2022-11-20T08:07:12;9.90;98.30
10986;DHT22;5546;48.714;8.738;2022-11-20T08:09:37;10.00;98.20
10986;DHT22;5546;48.714;8.738;2022-11-20T08:12:03;10.20;97.60
10986;DHT22;5546;48.714;8.738;2022-11-20T08:14:47;10.20;97.70
10986;DHT22;5546;48.714;8.738;2022-11-20T08:17:12;10.00;97.60
10986;DHT22;5546;48.714;8.738;2022-11-20T08:19:38;9.60;98.20
10986;DHT22;5546;48.714;8.738;2022-11-20T08:22:03;8.70;98.80
10986;DHT22;5546;48.714;8.738;2022-11-20T08:24:29;8.70;99.10
10986;DHT22;5546;48.714;8.738;2022-11-20T08:26:57;8.60;99.90
10986;DHT22;5546;48.714;8.738;2022-11-20T08:29:23;8.70;99.90
10986;DHT22;5546;48.714;8.738;2022-11-20T08:31:48;8.70;99.80
10986;DHT22;5546;48.714;8.738;2022-11-20T08:34:14;8.80;99.50
10986;DHT22;5546;48.714;8.738;2022-11-20T08:36:40;8.80;99.80
10986;DHT22;5546;48.714;8.738;2022-11-20T08:39:05;8.80;99.60
10986;DHT22;5546;48.714;8.738;2022-11-20T08:41:31;9.30;99.10
10986;DHT22;5546;48.714;8.738;2022-11-20T08:44:07;9.40;99.30
10986;DHT22;5546;48.714;8.738;2022-11-20T08:46:36;9.10;98.40
10986;DHT22;5546;48.714;8.738;2022-11-20T08:49:07;9.20;98.80
10986;DHT22;5546;48.714;8.738;2022-11-20T08:51:33;9.40;98.40
10986;DHT22;5546;48.714;8.738;2022-11-20T08:53:59;9.80;98.50
10986;DHT22;5546;48.714;8.738;2022-11-20T08:56:25;9.90;97.70
10986;DHT22;5546;48.714;8.738;2022-11-20T08:58:51;9.90;98.00
10986;DHT22;5546;48.714;8.738;2022-11-20T09:01:20;10.00;97.60
10986;DHT22;5546;48.714;8.738;2022-11-20T09:03:47;10.00;97.90
10986;DHT22;5546;48.714;8.738;2022-11-20T09:06:13;10.20;97.50
10986;DHT22;5546;48.714;8.738;2022-11-20T09:08:39;9.90;97.70
10986;DHT22;5546;48.714;8.738;2022-11-20T09:11:05;9.90;97.90
10986;DHT22;5546;48.714;8.738;2022-11-20T09:13:32;9.90;97.40
10986;DHT22;5546;48.714;8.738;2022-11-20T09:16:03;9.70;97.70
10986;DHT22;5546;48.714;8.738;2022-11-20T09:18:30;9.70;97.80
10986;DHT22;5546;48.714;8.738;2022-11-20T09:21:02;9.60;97.60
10986;DHT22;5546;48.714;8.738;2022-11-20T09:23:31;9.60;97.90
10986;DHT22;5546;48.714;8.738;2022-11-20T09:26:02;9.40;98.10
10986;DHT22;5546;48.714;8.738;2022-11-20T09:28:27;9.30;97.50
10986;DHT22;5546;48.714;8.738;2022-11-20T09:30:53;9.10;97.80
10986;DHT22;5546;48.714;8.738;2022-11-20T09:33:18;9.10;98.10
10986;DHT22;5546;48.714;8.738;2022-11-20T09:35:44;9.70;97.80
10986;DHT22;5546;48.714;8.738;2022-11-20T09:38:10;9.60;97.30
10986;DHT22;5546;48.714;8.738;2022-11-20T09:40:39;9.50;97.70
10986;DHT22;5546;48.714;8.738;2022-11-20T09:48:46;9.00;98.80
10986;DHT22;5546;48.714;8.738;2022-11-20T09:51:16;9.00;99.30
10986;DHT22;5546;48.714;8.738;2022-11-20T09:54:13;9.10;99.30
10986;DHT22;5546;48.714;8.738;2022-11-20T09:56:44;9.10;99.70
10986;DHT22;5546;48.714;8.738;2022-11-20T09:59:42;9.30;99.50
10986;DHT22;5546;48.714;8.738;2022-11-20T10:05:19;9.50;99.10
10986;DHT22;5546;48.714;8.738;2022-11-20T10:10:54;10.10;98.90
10986;DHT22;5546;48.714;8.738;2022-11-20T10:13:31;10.60;98.10
10986;DHT22;5546;48.714;8.738;2022-11-20T10:18:48;11.00;96.60
10986;DHT22;5546;48.714;8.738;2022-11-20T10:24:34;10.60;96.50
10986;DHT22;5546;48.714;8.738;2022-11-20T10:27:03;10.50;96.30
10986;DHT22;5546;48.714;8.738;2022-11-20T10:29:36;10.60;96.20
10986;DHT22;5546;48.714;8.738;2022-11-20T10:32:10;10.80;96.30
10986;DHT22;5546;48.714;8.738;2022-11-20T10:34:59;10.90;96.30
10986;DHT22;5546;48.714;8.738;2022-11-20T10:37:28;10.90;96.50
10986;DHT22;5546;48.714;8.738;2022-11-20T10:47:54;10.40;96.80
10986;DHT22;5546;48.714;8.738;2022-11-20T10:50:21;10.40;97.10
10986;DHT22;5546;48.714;8.738;2022-11-20T10:53:20;10.40;96.50
10986;DHT22;5546;48.714;8.738;2022-11-20T10:56:17;10.70;95.60
10986;DHT22;5546;48.714;8.738;2022-11-20T10:59:08;11.00;95.70
10986;DHT22;5546;48.714;8.738;2022-11-20T11:01:42;11.20;95.40
10986;DHT22;5546;48.714;8.738;2022-11-20T11:04:32;11.00;95.50
10986;DHT22;5546;48.714;8.738;2022-11-20T11:09:39;11.40;95.20
10986;DHT22;5546;48.714;8.738;2022-11-20T11:12:08;11.40;95.10
10986;DHT22;5546;48.714;8.738;2022-11-20T11:14:43;11.60;94.20
10986;DHT22;5546;48.714;8.738;2022-11-20T11:17:31;11.80;93.60
10986;DHT22;5546;48.714;8.738;2022-11-20T11:20:06;11.80;93.60
10986;DHT22;5546;48.714;8.738;2022-11-20T11:22:48;11.90;94.00
10986;DHT22;5546;48.714;8.738;2022-11-20T11:25:40;11.70;94.50
10986;DHT22;5546;48.714;8.738;2022-11-20T11:30:44;11.10;94.60
10986;DHT22;5546;48.714;8.738;2022-11-20T11:33:17;11.00;93.70
10986;DHT22;5546;48.714;8.738;2022-11-20T11:35:50;11.00;94.10
10986;DHT22;5546;48.714;8.738;2022-11-20T11:38:22;10.40;94.20
10986;DHT22;5546;48.714;8.738;2022-11-20T11:40:49;10.40;94.60
10986;DHT22;5546;48.714;8.738;2022-11-20T11:43:24;10.80;94.00
10986;DHT22;5546;48.714;8.738;2022-11-20T11:46:29;11.10;94.20
10986;DHT22;5546;48.714;8.738;2022-11-20T11:49:01;11.20;94.40
10986;DHT22;5546;48.714;8.738;2022-11-20T11:52:01;11.30;93.40
10986;DHT22;5546;48.714;8.738;2022-11-20T11:54:29;11.40;92.10
10986;DHT22;5546;48.714;8.738;2022-11-20T11:56:59;11.70;93.00
10986;DHT22;5546;48.714;8.738;2022-11-20T11:59:41;11.60;92.60
10986;DHT22;5546;48.714;8.738;2022-11-20T12:02:24;11.70;94.20
10986;DHT22;5546;48.714;8.738;2022-11-20T12:04:55;11.80;93.60
10986;DHT22;5546;48.714;8.738;2022-11-20T12:07:36;11.60;92.10
10986;DHT22;5546;48.714;8.738;2022-11-20T12:10:04;11.60;93.70
10986;DHT22;5546;48.714;8.738;2022-11-20T12:12:37;11.60;93.40
10986;DHT22;5546;48.714;8.738;2022-11-20T12:15:10;11.20;93.10
10986;DHT22;5546;48.714;8.738;2022-11-20T12:17:37;11.30;93.90
10986;DHT22;5546;48.714;8.738;2022-11-20T12:20:02;11.20;94.00
10986;DHT22;5546;48.714;8.738;2022-11-20T12:25:11;11.20;94.70
10986;DHT22;5546;48.714;8.738;2022-11-20T12:28:13;11.20;94.20
10986;DHT22;5546;48.714;8.738;2022-11-20T12:30:55;11.40;93.80
10986;DHT22;5546;48.714;8.738;2022-11-20T12:36:39;11.60;93.80
10986;DHT22;5546;48.714;8.738;2022-11-20T12:39:27;11.70;93.30
10986;DHT22;5546;48.714;8.738;2022-11-20T12:42:17;11.70;93.60
10986;DHT22;5546;48.714;8.738;2022-11-20T12:48:25;12.30;93.10
10986;DHT22;5546;48.714;8.738;2022-11-20T12:56:40;11.40;91.60
10986;DHT22;5546;48.714;8.738;2022-11-20T13:05:27;11.80;91.50
10986;DHT22;5546;48.714;8.738;2022-11-20T13:07:56;12.30;90.60
10986;DHT22;5546;48.714;8.738;2022-11-20T13:10:46;11.90;90.20
10986;DHT22;5546;48.714;8.738;2022-11-20T13:13:32;11.80;90.70
10986;DHT22;5546;48.714;8.738;2022-11-20T13:16:15;11.30;91.70
10986;DHT22;5546;48.714;8.738;2022-11-20T13:18:43;10.40;93.40
10986;DHT22;5546;48.714;8.738;2022-11-20T13:21:15;10.90;93.60
10986;DHT22;5546;48.714;8.738;2022-11-20T13:23:41;10.90;93.80
10986;DHT22;5546;48.714;8.738;2022-11-20T13:26:16;11.30;93.40
10986;DHT22;5546;48.714;8.738;2022-11-20T13:28:41;10.70;93.70
10986;DHT22;5546;48.714;8.738;2022-11-20T13:31:31;10.40;94.40
10986;DHT22;5546;48.714;8.738;2022-11-20T13:33:59;10.20;94.70
10986;DHT22;5546;48.714;8.738;2022-11-20T13:36:28;10.20;94.90
10986;DHT22;5546;48.714;8.738;2022-11-20T13:38:55;10.10;94.70
10986;DHT22;5546;48.714;8.738;2022-11-20T13:41:35;10.00;94.90
10986;DHT22;5546;48.714;8.738;2022-11-20T13:44:10;9.90;94.80
10986;DHT22;5546;48.714;8.738;2022-11-20T13:46:40;9.90;95.20
10986;DHT22;5546;48.714;8.738;2022-11-20T13:49:10;10.40;95.10
10986;DHT22;5546;48.714;8.738;2022-11-20T13:55:07;10.90;93.60
10986;DHT22;5546;48.714;8.738;2022-11-20T14:00:23;11.50;94.10
10986;DHT22;5546;48.714;8.738;2022-11-20T14:03:17;11.60;94.10
10986;DHT22;5546;48.714;8.738;2022-11-20T14:06:01;11.60;94.80
10986;DHT22;5546;48.714;8.738;2022-11-20T14:08:36;11.70;95.10
10986;DHT22;5546;48.714;8.738;2022-11-20T14:11:16;11.50;94.20
10986;DHT22;5546;48.714;8.738;2022-11-20T14:14:14;11.30;93.60
10986;DHT22;5546;48.714;8.738;2022-11-20T14:16:40;11.30;94.40
10986;DHT22;5546;48.714;8.738;2022-11-20T14:21:48;11.80;94.90
10986;DHT22;5546;48.714;8.738;2022-11-20T14:24:19;11.80;94.50
10986;DHT22;5546;48.714;8.738;2022-11-20T14:26:46;11.90;93.60
10986;DHT22;5546;48.714;8.738;2022-11-20T14:29:20;11.90;93.90
10986;DHT22;5546;48.714;8.738;2022-11-20T14:31:50;11.80;93.70
10986;DHT22;5546;48.714;8.738;2022-11-20T14:34:28;11.80;94.00
10986;DHT22;5546;48.714;8.738;2022-11-20T14:36:59;11.80;94.40
10986;DHT22;5546;48.714;8.738;2022-11-20T14:39:30;11.70;94.10
10986;DHT22;5546;48.714;8.738;2022-11-20T14:41:56;11.70;94.40
10986;DHT22;5546;48.714;8.738;2022-11-20T14:44:29;11.40;93.20
10986;DHT22;5546;48.714;8.738;2022-11-20T14:46:56;11.30;93.30
10986;DHT22;5546;48.714;8.738;2022-11-20T14:49:23;10.90;94.30
10986;DHT22;5546;48.714;8.738;2022-11-20T14:52:03;11.40;94.60
10986;DHT22;5546;48.714;8.738;2022-11-20T14:54:43;11.50;94.90
10986;DHT22;5546;48.714;8.738;2022-11-20T14:57:30;11.20;95.00
10986;DHT22;5546;48.714;8.738;2022-11-20T15:02:45;11.40;94.60
10986;DHT22;5546;48.714;8.738;2022-11-20T15:05:11;11.10;95.00
10986;DHT22;5546;48.714;8.738;2022-11-20T15:07:45;11.10;95.20
10986;DHT22;5546;48.714;8.738;2022-11-20T15:10:21;11.00;95.20
10986;DHT22;5546;48.714;8.738;2022-11-20T15:12:52;10.80;95.70
10986;DHT22;5546;48.714;8.738;2022-11-20T15:15:34;10.90;96.10
10986;DHT22;5546;48.714;8.738;2022-11-20T15:18:00;11.00;95.70
10986;DHT22;5546;48.714;8.738;2022-11-20T15:20:29;10.80;95.30
10986;DHT22;5546;48.714;8.738;2022-11-20T15:22:55;10.40;95.70
10986;DHT22;5546;48.714;8.738;2022-11-20T15:25:20;10.40;96.00
10986;DHT22;5546;48.714;8.738;2022-11-20T15:27:56;10.40;95.60
10986;DHT22;5546;48.714;8.738;2022-11-20T15:30:21;10.40;95.80
10986;DHT22;5546;48.714;8.738;2022-11-20T15:32:47;10.30;96.30
10986;DHT22;5546;48.714;8.738;2022-11-20T15:35:14;10.20;96.50
10986;DHT22;5546;48.714;8.738;2022-11-20T15:37:40;10.20;96.00
10986;DHT22;5546;48.714;8.738;2022-11-20T15:40:07;10.20;96.30
10986;DHT22;5546;48.714;8.738;2022-11-20T15:42:33;9.90;96.60
10986;DHT22;5546;48.714;8.738;2022-11-20T15:44:59;10.00;96.80
10986;DHT22;5546;48.714;8.738;2022-11-20T15:47:28;9.90;97.20
10986;DHT22;5546;48.714;8.738;2022-11-20T15:49:54;10.00;96.90
10986;DHT22;5546;48.714;8.738;2022-11-20T15:52:19;10.00;97.10
10986;DHT22;5546;48.714;8.738;2022-11-20T15:54:45;9.90;97.00
10986;DHT22;5546;48.714;8.738;2022-11-20T15:57:10;10.00;96.70
10986;DHT22;5546;48.714;8.738;2022-11-20T15:59:36;10.10;96.50
10986;DHT22;5546;48.714;8.738;2022-11-20T16:02:10;10.00;96.70
10986;DHT22;5546;48.714;8.738;2022-11-20T16:04:36;10.10;96.80
10986;DHT22;5546;48.714;8.738;2022-11-20T16:07:01;10.00;97.00
10986;DHT22;5546;48.714;8.738;2022-11-20T16:09:27;9.40;97.70
10986;DHT22;5546;48.714;8.738;2022-11-20T16:11:52;9.30;98.10
10986;DHT22;5546;48.714;8.738;2022-11-20T16:14:18;9.40;98.30
10986;DHT22;5546;48.714;8.738;2022-11-20T16:17:02;9.90;97.20
10986;DHT22;5546;48.714;8.738;2022-11-20T16:19:28;9.90;97.10
10986;DHT22;5546;48.714;8.738;2022-11-20T16:21:53;9.90;97.40
10986;DHT22;5546;48.714;8.738;2022-11-20T16:24:19;9.80;97.20
10986;DHT22;5546;48.714;8.738;2022-11-20T16:26:44;9.70;97.40
10986;DHT22;5546;48.714;8.738;2022-11-20T16:29:10;9.90;97.20
10986;DHT22;5546;48.714;8.738;2022-11-20T16:31:36;9.90;97.00
10986;DHT22;5546;48.714;8.738;2022-11-20T16:34:04;10.00;96.50
10986;DHT22;5546;48.714;8.738;2022-11-20T16:36:30;10.00;97.00
10986;DHT22;5546;48.714;8.738;2022-11-20T16:38:58;10.20;96.70
10986;DHT22;5546;48.714;8.738;2022-11-20T16:41:26;10.30;96.60
10986;DHT22;5546;48.714;8.738;2022-11-20T16:43:56;10.10;96.80
10986;DHT22;5546;48.714;8.738;2022-11-20T16:46:23;10.10;96.90
10986;DHT22;5546;48.714;8.738;2022-11-20T16:49:12;10.00;96.50
10986;DHT22;5546;48.714;8.738;2022-11-20T16:51:38;9.40;97.00
10986;DHT22;5546;48.714;8.738;2022-11-20T16:54:05;9.30;97.40
10986;DHT22;5546;48.714;8.738;2022-11-20T16:56:31;9.50;97.50
10986;DHT22;5546;48.714;8.738;2022-11-20T16:58:59;9.70;97.10
10986;DHT22;5546;48.714;8.738;2022-11-20T17:01:25;9.80;97.00
10986;DHT22;5546;48.714;8.738;2022-11-20T17:03:55;10.00;97.00
10986;DHT22;5546;48.714;8.738;2022-11-20T17:06:23;10.20;96.40
10986;DHT22;5546;48.714;8.738;2022-11-20T17:08:49;10.00;96.00
10986;DHT22;5546;48.714;8.738;2022-11-20T17:11:17;9.90;96.40
10986;DHT22;5546;48.714;8.738;2022-11-20T17:13:43;9.70;97.10
10986;DHT22;5546;48.714;8.738;2022-11-20T17:16:14;9.40;97.60
10986;DHT22;5546;48.714;8.738;2022-11-20T17:18:40;10.10;96.50
10986;DHT22;5546;48.714;8.738;2022-11-20T17:21:06;10.00;96.40
10986;DHT22;5546;48.714;8.738;2022-11-20T17:23:34;10.20;96.30
10986;DHT22;5546;48.714;8.738;2022-11-20T17:26:01;10.30;96.20
10986;DHT22;5546;48.714;8.738;2022-11-20T17:31:01;10.30;96.00